sensor_id;sensor_type;location;lat;lon;timestamp;P1;durP1;ratioP1;P2;durP2;ratioP2
37355;SDS011;48747;50.250;18.848;2022-08-20T00:01:02;21.23;;;11.73;;
37355;SDS011;48747;50.250;18.848;2022-08-20T00:03:10;18.67;;;11.40;;
37355;SDS011;48747;50.250;18.848;2022-08-20T00:05:21;16.77;;;10.82;;
37355;SDS011;48747;50.250;18.848;2022-08-20T00:07:33;18.80;;;11.53;;
37355;SDS011;48747;50.250;18.848;2022-08-20T00:09:38;17.05;;;11.85;;
37355;SDS011;48747;50.250;18.848;2022-08-20T00:11:43;18.35;;;12.25;;
37355;SDS011;48747;50.250;18.848;2022-08-20T00:13:48;17.27;;;12.10;;
37355;SDS011;48747;50.250;18.848;2022-08-20T00:15:54;18.45;;;12.30;;
37355;SDS011;48747;50.250;18.848;2022-08-20T00:17:58;16.95;;;12.35;;
37355;SDS011;48747;50.250;18.848;2022-08-20T00:20:07;16.97;;;13.15;;
37355;SDS011;48747;50.250;18.848;2022-08-20T00:22:13;18.50;;;13.40;;
37355;SDS011;48747;50.250;18.848;2022-08-20T00:24:22;22.27;;;13.35;;
37355;SDS011;48747;50.250;18.848;2022-08-20T00:26:40;23.38;;;14.43;;
37355;SDS011;48747;50.250;18.848;2022-08-20T00:28:33;22.77;;;13.20;;
37355;SDS011;48747;50.250;18.848;2022-08-20T00:30:48;23.05;;;13.88;;
37355;SDS011;48747;50.250;18.848;2022-08-20T00:32:54;20.40;;;13.58;;
37355;SDS011;48747;50.250;18.848;2022-08-20T00:34:57;19.12;;;13.90;;
37355;SDS011;48747;50.250;18.848;2022-08-20T00:37:01;17.90;;;12.95;;
37355;SDS011;48747;50.250;18.848;2022-08-20T00:39:06;18.50;;;12.45;;
37355;SDS011;48747;50.250;18.848;2022-08-20T00:41:12;19.40;;;13.35;;
37355;SDS011;48747;50.250;18.848;2022-08-20T00:47:54;24.98;;;13.40;;
37355;SDS011;48747;50.250;18.848;2022-08-20T00:49:57;20.35;;;13.35;;
37355;SDS011;48747;50.250;18.848;2022-08-20T00:52:10;19.95;;;14.35;;
37355;SDS011;48747;50.250;18.848;2022-08-20T00:54:16;19.65;;;14.68;;
37355;SDS011;48747;50.250;18.848;2022-08-20T00:56:22;19.92;;;13.95;;
37355;SDS011;48747;50.250;18.848;2022-08-20T00:58:26;21.73;;;14.78;;
37355;SDS011;48747;50.250;18.848;2022-08-20T01:00:38;23.07;;;15.20;;
37355;SDS011;48747;50.250;18.848;2022-08-20T01:02:47;19.90;;;13.55;;
37355;SDS011;48747;50.250;18.848;2022-08-20T01:04:47;23.22;;;14.93;;
37355;SDS011;48747;50.250;18.848;2022-08-20T01:06:52;20.23;;;14.90;;
37355;SDS011;48747;50.250;18.848;2022-08-20T01:08:58;23.52;;;16.77;;
37355;SDS011;48747;50.250;18.848;2022-08-20T01:11:02;21.65;;;15.98;;
37355;SDS011;48747;50.250;18.848;2022-08-20T01:13:13;23.10;;;15.53;;
37355;SDS011;48747;50.250;18.848;2022-08-20T01:15:17;23.12;;;15.88;;
37355;SDS011;48747;50.250;18.848;2022-08-20T01:17:30;22.32;;;15.50;;
37355;SDS011;48747;50.250;18.848;2022-08-20T01:19:32;21.85;;;15.18;;
37355;SDS011;48747;50.250;18.848;2022-08-20T01:21:39;21.60;;;15.30;;
37355;SDS011;48747;50.250;18.848;2022-08-20T01:23:50;20.37;;;14.98;;
37355;SDS011;48747;50.250;18.848;2022-08-20T01:28:07;20.92;;;14.05;;
37355;SDS011;48747;50.250;18.848;2022-08-20T01:30:14;21.75;;;14.40;;
37355;SDS011;48747;50.250;18.848;2022-08-20T01:32:17;22.80;;;14.35;;
37355;SDS011;48747;50.250;18.848;2022-08-20T01:34:21;25.02;;;14.73;;
37355;SDS011;48747;50.250;18.848;2022-08-20T01:36:35;18.27;;;15.18;;
37355;SDS011;48747;50.250;18.848;2022-08-20T01:38:31;22.87;;;15.32;;
37355;SDS011;48747;50.250;18.848;2022-08-20T01:42:52;21.95;;;14.40;;
37355;SDS011;48747;50.250;18.848;2022-08-20T01:44:58;23.73;;;14.80;;
37355;SDS011;48747;50.250;18.848;2022-08-20T01:47:14;22.42;;;13.85;;
37355;SDS011;48747;50.250;18.848;2022-08-20T01:49:23;19.25;;;15.13;;
37355;SDS011;48747;50.250;18.848;2022-08-20T01:51:27;20.40;;;14.90;;
37355;SDS011;48747;50.250;18.848;2022-08-20T01:53:32;23.42;;;14.83;;
37355;SDS011;48747;50.250;18.848;2022-08-20T01:55:35;20.23;;;15.95;;
37355;SDS011;48747;50.250;18.848;2022-08-20T01:57:41;21.87;;;16.82;;
37355;SDS011;48747;50.250;18.848;2022-08-20T01:59:45;21.30;;;16.00;;
37355;SDS011;48747;50.250;18.848;2022-08-20T02:01:52;24.05;;;15.72;;
37355;SDS011;48747;50.250;18.848;2022-08-20T02:03:58;25.32;;;16.60;;
37355;SDS011;48747;50.250;18.848;2022-08-20T02:06:08;25.97;;;16.85;;
37355;SDS011;48747;50.250;18.848;2022-08-20T02:08:09;20.97;;;16.95;;
37355;SDS011;48747;50.250;18.848;2022-08-20T02:10:13;24.23;;;15.10;;
37355;SDS011;48747;50.250;18.848;2022-08-20T02:12:18;23.22;;;16.25;;
37355;SDS011;48747;50.250;18.848;2022-08-20T02:14:22;23.27;;;16.85;;
37355;SDS011;48747;50.250;18.848;2022-08-20T02:16:31;23.65;;;17.27;;
37355;SDS011;48747;50.250;18.848;2022-08-20T02:18:32;22.13;;;16.80;;
37355;SDS011;48747;50.250;18.848;2022-08-20T02:20:37;21.35;;;15.70;;
37355;SDS011;48747;50.250;18.848;2022-08-20T02:24:55;20.55;;;15.45;;
37355;SDS011;48747;50.250;18.848;2022-08-20T02:26:59;24.92;;;16.55;;
37355;SDS011;48747;50.250;18.848;2022-08-20T02:29:03;28.85;;;17.10;;
37355;SDS011;48747;50.250;18.848;2022-08-20T02:31:08;20.02;;;15.00;;
37355;SDS011;48747;50.250;18.848;2022-08-20T02:33:12;19.80;;;14.15;;
37355;SDS011;48747;50.250;18.848;2022-08-20T02:35:22;24.15;;;15.60;;
37355;SDS011;48747;50.250;18.848;2022-08-20T02:37:26;22.60;;;15.32;;
37355;SDS011;48747;50.250;18.848;2022-08-20T02:39:28;20.70;;;14.50;;
37355;SDS011;48747;50.250;18.848;2022-08-20T02:41:33;22.25;;;14.83;;
37355;SDS011;48747;50.250;18.848;2022-08-20T02:43:38;20.52;;;13.03;;
37355;SDS011;48747;50.250;18.848;2022-08-20T02:45:43;21.85;;;13.72;;
37355;SDS011;48747;50.250;18.848;2022-08-20T02:47:46;23.22;;;13.90;;
37355;SDS011;48747;50.250;18.848;2022-08-20T02:49:49;22.48;;;14.50;;
37355;SDS011;48747;50.250;18.848;2022-08-20T02:51:54;18.27;;;14.63;;
37355;SDS011;48747;50.250;18.848;2022-08-20T02:53:59;23.67;;;14.73;;
37355;SDS011;48747;50.250;18.848;2022-08-20T02:56:08;23.35;;;14.65;;
37355;SDS011;48747;50.250;18.848;2022-08-20T02:58:07;20.45;;;14.28;;
37355;SDS011;48747;50.250;18.848;2022-08-20T03:00:13;23.40;;;15.45;;
37355;SDS011;48747;50.250;18.848;2022-08-20T03:02:19;23.25;;;14.45;;
37355;SDS011;48747;50.250;18.848;2022-08-20T03:04:23;23.35;;;14.20;;
37355;SDS011;48747;50.250;18.848;2022-08-20T03:06:27;21.77;;;15.23;;
37355;SDS011;48747;50.250;18.848;2022-08-20T03:08:33;23.73;;;15.08;;
37355;SDS011;48747;50.250;18.848;2022-08-20T03:10:37;27.32;;;14.73;;
37355;SDS011;48747;50.250;18.848;2022-08-20T03:12:44;18.67;;;14.40;;
37355;SDS011;48747;50.250;18.848;2022-08-20T03:14:47;20.82;;;14.28;;
37355;SDS011;48747;50.250;18.848;2022-08-20T03:16:50;20.40;;;14.40;;
37355;SDS011;48747;50.250;18.848;2022-08-20T03:18:55;22.17;;;15.32;;
37355;SDS011;48747;50.250;18.848;2022-08-20T03:20:59;24.77;;;14.98;;
37355;SDS011;48747;50.250;18.848;2022-08-20T03:23:03;21.60;;;15.43;;
37355;SDS011;48747;50.250;18.848;2022-08-20T03:25:06;21.60;;;16.23;;
37355;SDS011;48747;50.250;18.848;2022-08-20T03:27:11;24.37;;;16.30;;
37355;SDS011;48747;50.250;18.848;2022-08-20T03:29:14;23.87;;;15.58;;
37355;SDS011;48747;50.250;18.848;2022-08-20T03:31:21;24.15;;;15.95;;
37355;SDS011;48747;50.250;18.848;2022-08-20T03:33:24;20.45;;;15.60;;
37355;SDS011;48747;50.250;18.848;2022-08-20T03:35:29;23.62;;;15.88;;
37355;SDS011;48747;50.250;18.848;2022-08-20T03:37:37;20.75;;;15.43;;
37355;SDS011;48747;50.250;18.848;2022-08-20T03:39:41;19.55;;;15.15;;
37355;SDS011;48747;50.250;18.848;2022-08-20T03:41:44;20.70;;;14.50;;
37355;SDS011;48747;50.250;18.848;2022-08-20T03:43:47;19.27;;;15.32;;
37355;SDS011;48747;50.250;18.848;2022-08-20T03:45:52;23.50;;;16.20;;
37355;SDS011;48747;50.250;18.848;2022-08-20T03:47:56;22.60;;;15.55;;
37355;SDS011;48747;50.250;18.848;2022-08-20T03:50:02;22.05;;;15.63;;
37355;SDS011;48747;50.250;18.848;2022-08-20T03:52:09;26.35;;;15.78;;
37355;SDS011;48747;50.250;18.848;2022-08-20T03:54:14;20.90;;;14.30;;
37355;SDS011;48747;50.250;18.848;2022-08-20T03:56:21;18.17;;;15.68;;
37355;SDS011;48747;50.250;18.848;2022-08-20T03:58:26;19.12;;;15.25;;
37355;SDS011;48747;50.250;18.848;2022-08-20T04:00:35;23.62;;;15.23;;
37355;SDS011;48747;50.250;18.848;2022-08-20T04:02:40;23.87;;;14.40;;
37355;SDS011;48747;50.250;18.848;2022-08-20T04:04:43;22.58;;;13.48;;
37355;SDS011;48747;50.250;18.848;2022-08-20T04:06:47;20.32;;;14.50;;
37355;SDS011;48747;50.250;18.848;2022-08-20T04:08:50;21.27;;;15.50;;
37355;SDS011;48747;50.250;18.848;2022-08-20T04:10:56;20.27;;;14.68;;
37355;SDS011;48747;50.250;18.848;2022-08-20T04:13:00;21.50;;;14.90;;
37355;SDS011;48747;50.250;18.848;2022-08-20T04:15:04;23.50;;;13.75;;
37355;SDS011;48747;50.250;18.848;2022-08-20T04:17:11;24.32;;;15.08;;
37355;SDS011;48747;50.250;18.848;2022-08-20T04:19:15;19.25;;;14.75;;
37355;SDS011;48747;50.250;18.848;2022-08-20T04:21:21;20.88;;;13.85;;
37355;SDS011;48747;50.250;18.848;2022-08-20T04:23:30;19.17;;;13.90;;
37355;SDS011;48747;50.250;18.848;2022-08-20T04:25:34;18.87;;;13.72;;
37355;SDS011;48747;50.250;18.848;2022-08-20T04:27:40;21.85;;;15.63;;
37355;SDS011;48747;50.250;18.848;2022-08-20T04:29:43;19.27;;;15.45;;
37355;SDS011;48747;50.250;18.848;2022-08-20T04:31:50;23.75;;;16.77;;
37355;SDS011;48747;50.250;18.848;2022-08-20T04:33:55;22.70;;;15.95;;
37355;SDS011;48747;50.250;18.848;2022-08-20T04:36:02;22.07;;;16.40;;
37355;SDS011;48747;50.250;18.848;2022-08-20T04:38:07;18.73;;;15.08;;
37355;SDS011;48747;50.250;18.848;2022-08-20T04:40:14;21.82;;;16.97;;
37355;SDS011;48747;50.250;18.848;2022-08-20T04:42:36;21.70;;;16.65;;
37355;SDS011;48747;50.250;18.848;2022-08-20T04:44:40;22.48;;;16.07;;
37355;SDS011;48747;50.250;18.848;2022-08-20T04:46:43;24.92;;;17.10;;
37355;SDS011;48747;50.250;18.848;2022-08-20T04:48:46;22.67;;;16.23;;
37355;SDS011;48747;50.250;18.848;2022-08-20T04:50:55;26.40;;;18.12;;
37355;SDS011;48747;50.250;18.848;2022-08-20T04:53:01;25.92;;;16.90;;
37355;SDS011;48747;50.250;18.848;2022-08-20T04:55:12;28.52;;;17.45;;
37355;SDS011;48747;50.250;18.848;2022-08-20T04:57:11;25.15;;;18.32;;
37355;SDS011;48747;50.250;18.848;2022-08-20T04:59:15;32.42;;;17.45;;
37355;SDS011;48747;50.250;18.848;2022-08-20T05:01:22;24.15;;;17.05;;
37355;SDS011;48747;50.250;18.848;2022-08-20T05:03:26;32.95;;;18.02;;
37355;SDS011;48747;50.250;18.848;2022-08-20T05:05:29;24.82;;;16.48;;
37355;SDS011;48747;50.250;18.848;2022-08-20T05:07:41;24.72;;;17.35;;
37355;SDS011;48747;50.250;18.848;2022-08-20T05:09:49;22.82;;;17.77;;
37355;SDS011;48747;50.250;18.848;2022-08-20T05:11:57;21.93;;;15.50;;
37355;SDS011;48747;50.250;18.848;2022-08-20T05:14:01;23.25;;;17.40;;
37355;SDS011;48747;50.250;18.848;2022-08-20T05:16:08;24.57;;;16.12;;
37355;SDS011;48747;50.250;18.848;2022-08-20T05:18:11;24.70;;;15.95;;
37355;SDS011;48747;50.250;18.848;2022-08-20T05:20:16;26.52;;;16.75;;
37355;SDS011;48747;50.250;18.848;2022-08-20T05:22:20;28.32;;;15.75;;
37355;SDS011;48747;50.250;18.848;2022-08-20T05:24:26;25.10;;;17.67;;
37355;SDS011;48747;50.250;18.848;2022-08-20T05:26:32;27.48;;;16.55;;
37355;SDS011;48747;50.250;18.848;2022-08-20T05:28:44;23.65;;;16.23;;
37355;SDS011;48747;50.250;18.848;2022-08-20T05:30:44;20.85;;;15.90;;
37355;SDS011;48747;50.250;18.848;2022-08-20T05:32:51;23.83;;;17.25;;
37355;SDS011;48747;50.250;18.848;2022-08-20T05:34:54;26.65;;;17.40;;
37355;SDS011;48747;50.250;18.848;2022-08-20T05:37:08;22.45;;;17.35;;
37355;SDS011;48747;50.250;18.848;2022-08-20T05:39:05;21.23;;;15.10;;
37355;SDS011;48747;50.250;18.848;2022-08-20T05:41:13;21.55;;;16.05;;
37355;SDS011;48747;50.250;18.848;2022-08-20T05:43:23;22.67;;;16.50;;
37355;SDS011;48747;50.250;18.848;2022-08-20T05:45:22;22.60;;;17.23;;
37355;SDS011;48747;50.250;18.848;2022-08-20T05:49:40;24.18;;;17.20;;
37355;SDS011;48747;50.250;18.848;2022-08-20T05:51:43;21.05;;;18.73;;
37355;SDS011;48747;50.250;18.848;2022-08-20T05:53:47;26.25;;;23.50;;
37355;SDS011;48747;50.250;18.848;2022-08-20T05:55:50;27.25;;;22.30;;
37355;SDS011;48747;50.250;18.848;2022-08-20T06:00:05;22.50;;;19.80;;
37355;SDS011;48747;50.250;18.848;2022-08-20T06:02:12;23.87;;;18.77;;
37355;SDS011;48747;50.250;18.848;2022-08-20T06:04:34;25.80;;;20.82;;
37355;SDS011;48747;50.250;18.848;2022-08-20T06:06:47;25.17;;;20.40;;
37355;SDS011;48747;50.250;18.848;2022-08-20T06:08:48;27.10;;;20.97;;
37355;SDS011;48747;50.250;18.848;2022-08-20T06:10:51;26.12;;;20.10;;
37355;SDS011;48747;50.250;18.848;2022-08-20T06:12:54;26.75;;;19.25;;
37355;SDS011;48747;50.250;18.848;2022-08-20T06:15:13;23.98;;;21.57;;
37355;SDS011;48747;50.250;18.848;2022-08-20T06:17:03;23.07;;;19.65;;
37355;SDS011;48747;50.250;18.848;2022-08-20T06:19:15;24.72;;;20.95;;
37355;SDS011;48747;50.250;18.848;2022-08-20T06:21:19;21.90;;;19.62;;
37355;SDS011;48747;50.250;18.848;2022-08-20T06:23:22;23.27;;;20.75;;
37355;SDS011;48747;50.250;18.848;2022-08-20T06:25:27;23.77;;;21.20;;
37355;SDS011;48747;50.250;18.848;2022-08-20T06:27:30;29.15;;;21.55;;
37355;SDS011;48747;50.250;18.848;2022-08-20T06:29:35;22.77;;;20.15;;
37355;SDS011;48747;50.250;18.848;2022-08-20T06:31:38;25.10;;;20.43;;
37355;SDS011;48747;50.250;18.848;2022-08-20T06:33:41;23.62;;;18.92;;
37355;SDS011;48747;50.250;18.848;2022-08-20T06:35:46;27.02;;;21.35;;
37355;SDS011;48747;50.250;18.848;2022-08-20T06:37:49;23.32;;;20.97;;
37355;SDS011;48747;50.250;18.848;2022-08-20T06:39:53;23.92;;;19.70;;
37355;SDS011;48747;50.250;18.848;2022-08-20T06:41:58;22.55;;;20.12;;
37355;SDS011;48747;50.250;18.848;2022-08-20T06:44:01;23.70;;;21.15;;
37355;SDS011;48747;50.250;18.848;2022-08-20T06:46:04;26.30;;;22.17;;
37355;SDS011;48747;50.250;18.848;2022-08-20T06:48:08;24.50;;;21.95;;
37355;SDS011;48747;50.250;18.848;2022-08-20T06:50:15;36.88;;;25.95;;
37355;SDS011;48747;50.250;18.848;2022-08-20T06:52:19;31.10;;;22.13;;
37355;SDS011;48747;50.250;18.848;2022-08-20T06:54:26;31.02;;;27.87;;
37355;SDS011;48747;50.250;18.848;2022-08-20T06:56:31;32.85;;;30.05;;
37355;SDS011;48747;50.250;18.848;2022-08-20T06:58:35;46.33;;;42.80;;
37355;SDS011;48747;50.250;18.848;2022-08-20T07:00:39;28.23;;;25.62;;
37355;SDS011;48747;50.250;18.848;2022-08-20T07:02:44;18.25;;;13.70;;
37355;SDS011;48747;50.250;18.848;2022-08-20T07:04:48;21.55;;;14.10;;
37355;SDS011;48747;50.250;18.848;2022-08-20T07:06:54;18.05;;;13.55;;
37355;SDS011;48747;50.250;18.848;2022-08-20T07:08:58;20.77;;;14.50;;
37355;SDS011;48747;50.250;18.848;2022-08-20T07:11:01;22.13;;;16.93;;
37355;SDS011;48747;50.250;18.848;2022-08-20T07:13:04;17.92;;;13.53;;
37355;SDS011;48747;50.250;18.848;2022-08-20T07:15:08;17.30;;;11.83;;
37355;SDS011;48747;50.250;18.848;2022-08-20T07:17:18;12.82;;;9.28;;
37355;SDS011;48747;50.250;18.848;2022-08-20T07:19:20;17.02;;;11.28;;
37355;SDS011;48747;50.250;18.848;2022-08-20T07:21:24;16.62;;;9.93;;
37355;SDS011;48747;50.250;18.848;2022-08-20T07:23:27;17.20;;;10.23;;
37355;SDS011;48747;50.250;18.848;2022-08-20T07:25:34;17.42;;;9.88;;
37355;SDS011;48747;50.250;18.848;2022-08-20T07:27:37;16.85;;;10.80;;
37355;SDS011;48747;50.250;18.848;2022-08-20T07:29:40;14.33;;;9.95;;
37355;SDS011;48747;50.250;18.848;2022-08-20T07:32:01;15.72;;;10.93;;
37355;SDS011;48747;50.250;18.848;2022-08-20T07:34:28;22.25;;;11.65;;
37355;SDS011;48747;50.250;18.848;2022-08-20T07:36:27;16.12;;;10.80;;
37355;SDS011;48747;50.250;18.848;2022-08-20T07:38:32;18.30;;;10.58;;
37355;SDS011;48747;50.250;18.848;2022-08-20T07:40:37;16.30;;;9.08;;
37355;SDS011;48747;50.250;18.848;2022-08-20T07:42:40;18.25;;;9.20;;
37355;SDS011;48747;50.250;18.848;2022-08-20T07:44:45;17.10;;;9.65;;
37355;SDS011;48747;50.250;18.848;2022-08-20T07:46:49;18.32;;;9.73;;
37355;SDS011;48747;50.250;18.848;2022-08-20T07:48:52;12.85;;;8.93;;
37355;SDS011;48747;50.250;18.848;2022-08-20T07:50:56;17.00;;;8.90;;
37355;SDS011;48747;50.250;18.848;2022-08-20T07:53:01;18.05;;;8.60;;
37355;SDS011;48747;50.250;18.848;2022-08-20T07:55:06;14.40;;;8.38;;
37355;SDS011;48747;50.250;18.848;2022-08-20T07:57:12;15.30;;;7.90;;
37355;SDS011;48747;50.250;18.848;2022-08-20T07:59:19;16.07;;;8.90;;
37355;SDS011;48747;50.250;18.848;2022-08-20T08:01:23;15.65;;;9.20;;
37355;SDS011;48747;50.250;18.848;2022-08-20T08:03:28;16.40;;;9.83;;
37355;SDS011;48747;50.250;18.848;2022-08-20T08:05:34;13.72;;;8.33;;
37355;SDS011;48747;50.250;18.848;2022-08-20T08:07:45;15.40;;;9.23;;
37355;SDS011;48747;50.250;18.848;2022-08-20T08:09:43;14.30;;;9.68;;
37355;SDS011;48747;50.250;18.848;2022-08-20T08:11:47;17.67;;;9.20;;
37355;SDS011;48747;50.250;18.848;2022-08-20T08:13:57;14.63;;;9.00;;
37355;SDS011;48747;50.250;18.848;2022-08-20T08:15:59;13.00;;;8.70;;
37355;SDS011;48747;50.250;18.848;2022-08-20T08:18:04;16.75;;;8.83;;
37355;SDS011;48747;50.250;18.848;2022-08-20T08:20:12;14.70;;;10.10;;
37355;SDS011;48747;50.250;18.848;2022-08-20T08:22:18;18.27;;;9.55;;
37355;SDS011;48747;50.250;18.848;2022-08-20T08:24:22;19.02;;;9.93;;
37355;SDS011;48747;50.250;18.848;2022-08-20T08:26:28;13.98;;;8.58;;
37355;SDS011;48747;50.250;18.848;2022-08-20T08:28:31;15.25;;;8.55;;
37355;SDS011;48747;50.250;18.848;2022-08-20T08:30:45;15.98;;;8.95;;
37355;SDS011;48747;50.250;18.848;2022-08-20T08:32:48;28.65;;;11.12;;
37355;SDS011;48747;50.250;18.848;2022-08-20T08:35:14;15.70;;;8.40;;
37355;SDS011;48747;50.250;18.848;2022-08-20T08:37:15;16.23;;;8.18;;
37355;SDS011;48747;50.250;18.848;2022-08-20T08:39:18;14.33;;;8.28;;
37355;SDS011;48747;50.250;18.848;2022-08-20T08:41:25;12.37;;;7.80;;
37355;SDS011;48747;50.250;18.848;2022-08-20T08:43:35;13.78;;;8.65;;
37355;SDS011;48747;50.250;18.848;2022-08-20T08:45:42;15.43;;;7.20;;
37355;SDS011;48747;50.250;18.848;2022-08-20T08:47:48;12.63;;;6.72;;
37355;SDS011;48747;50.250;18.848;2022-08-20T08:49:51;12.47;;;6.40;;
37355;SDS011;48747;50.250;18.848;2022-08-20T08:52:03;16.55;;;7.45;;
37355;SDS011;48747;50.250;18.848;2022-08-20T08:54:04;12.75;;;7.45;;
37355;SDS011;48747;50.250;18.848;2022-08-20T08:56:10;9.95;;;6.90;;
37355;SDS011;48747;50.250;18.848;2022-08-20T08:58:15;12.28;;;7.25;;
37355;SDS011;48747;50.250;18.848;2022-08-20T09:00:18;13.15;;;8.08;;
37355;SDS011;48747;50.250;18.848;2022-08-20T09:02:23;15.40;;;8.00;;
37355;SDS011;48747;50.250;18.848;2022-08-20T09:04:32;12.00;;;7.25;;
37355;SDS011;48747;50.250;18.848;2022-08-20T09:06:39;12.55;;;7.45;;
37355;SDS011;48747;50.250;18.848;2022-08-20T09:09:03;13.43;;;6.95;;
37355;SDS011;48747;50.250;18.848;2022-08-20T09:11:05;14.47;;;7.22;;
37355;SDS011;48747;50.250;18.848;2022-08-20T09:13:10;16.52;;;7.67;;
37355;SDS011;48747;50.250;18.848;2022-08-20T09:15:21;11.73;;;7.42;;
37355;SDS011;48747;50.250;18.848;2022-08-20T09:19:36;11.85;;;7.28;;
37355;SDS011;48747;50.250;18.848;2022-08-20T09:21:51;11.22;;;6.87;;
37355;SDS011;48747;50.250;18.848;2022-08-20T09:23:54;13.30;;;6.85;;
37355;SDS011;48747;50.250;18.848;2022-08-20T09:26:01;14.38;;;7.45;;
37355;SDS011;48747;50.250;18.848;2022-08-20T09:28:08;13.95;;;7.72;;
37355;SDS011;48747;50.250;18.848;2022-08-20T09:32:19;14.43;;;7.50;;
37355;SDS011;48747;50.250;18.848;2022-08-20T09:34:23;10.43;;;6.90;;
37355;SDS011;48747;50.250;18.848;2022-08-20T09:36:33;15.60;;;7.35;;
37355;SDS011;48747;50.250;18.848;2022-08-20T09:38:54;20.32;;;7.90;;
37355;SDS011;48747;50.250;18.848;2022-08-20T09:40:55;12.73;;;6.90;;
37355;SDS011;48747;50.250;18.848;2022-08-20T09:42:57;12.43;;;6.92;;
37355;SDS011;48747;50.250;18.848;2022-08-20T09:45:05;15.85;;;7.05;;
37355;SDS011;48747;50.250;18.848;2022-08-20T09:47:10;11.33;;;6.20;;
37355;SDS011;48747;50.250;18.848;2022-08-20T09:49:15;14.23;;;6.67;;
37355;SDS011;48747;50.250;18.848;2022-08-20T09:51:20;14.73;;;6.90;;
37355;SDS011;48747;50.250;18.848;2022-08-20T09:53:30;11.97;;;6.62;;
37355;SDS011;48747;50.250;18.848;2022-08-20T09:55:36;14.30;;;7.12;;
37355;SDS011;48747;50.250;18.848;2022-08-20T09:57:47;10.90;;;6.37;;
37355;SDS011;48747;50.250;18.848;2022-08-20T09:59:50;16.30;;;7.67;;
37355;SDS011;48747;50.250;18.848;2022-08-20T10:02:04;10.23;;;7.12;;
37355;SDS011;48747;50.250;18.848;2022-08-20T10:04:08;13.48;;;7.10;;
37355;SDS011;48747;50.250;18.848;2022-08-20T10:06:21;12.82;;;7.22;;
37355;SDS011;48747;50.250;18.848;2022-08-20T10:08:20;15.98;;;7.50;;
37355;SDS011;48747;50.250;18.848;2022-08-20T10:14:43;14.90;;;7.65;;
37355;SDS011;48747;50.250;18.848;2022-08-20T10:16:53;13.68;;;7.78;;
37355;SDS011;48747;50.250;18.848;2022-08-20T10:18:59;17.80;;;7.15;;
37355;SDS011;48747;50.250;18.848;2022-08-20T10:23:17;13.80;;;7.00;;
37355;SDS011;48747;50.250;18.848;2022-08-20T10:25:22;17.70;;;7.65;;
37355;SDS011;48747;50.250;18.848;2022-08-20T10:27:29;13.95;;;6.70;;
37355;SDS011;48747;50.250;18.848;2022-08-20T10:29:38;18.37;;;6.40;;
37355;SDS011;48747;50.250;18.848;2022-08-20T10:31:46;16.27;;;6.85;;
37355;SDS011;48747;50.250;18.848;2022-08-20T10:33:57;15.88;;;6.75;;
37355;SDS011;48747;50.250;18.848;2022-08-20T10:38:18;13.20;;;6.30;;
37355;SDS011;48747;50.250;18.848;2022-08-20T10:40:28;14.58;;;7.47;;
37355;SDS011;48747;50.250;18.848;2022-08-20T10:42:38;13.20;;;6.53;;
37355;SDS011;48747;50.250;18.848;2022-08-20T10:44:46;15.30;;;7.10;;
37355;SDS011;48747;50.250;18.848;2022-08-20T10:46:52;16.30;;;6.60;;
37355;SDS011;48747;50.250;18.848;2022-08-20T10:48:59;13.15;;;6.10;;
37355;SDS011;48747;50.250;18.848;2022-08-20T10:51:06;14.20;;;6.50;;
37355;SDS011;48747;50.250;18.848;2022-08-20T10:53:12;12.95;;;6.97;;
37355;SDS011;48747;50.250;18.848;2022-08-20T10:55:26;13.60;;;6.30;;
37355;SDS011;48747;50.250;18.848;2022-08-20T10:57:36;14.95;;;6.85;;
37355;SDS011;48747;50.250;18.848;2022-08-20T10:59:46;13.58;;;6.65;;
37355;SDS011;48747;50.250;18.848;2022-08-20T11:01:48;13.03;;;5.85;;
37355;SDS011;48747;50.250;18.848;2022-08-20T11:03:57;14.78;;;7.25;;
37355;SDS011;48747;50.250;18.848;2022-08-20T11:06:03;17.30;;;7.30;;
37355;SDS011;48747;50.250;18.848;2022-08-20T11:08:09;15.05;;;6.85;;
37355;SDS011;48747;50.250;18.848;2022-08-20T11:10:13;13.58;;;6.75;;
37355;SDS011;48747;50.250;18.848;2022-08-20T11:12:17;14.95;;;6.92;;
37355;SDS011;48747;50.250;18.848;2022-08-20T11:14:24;13.62;;;6.10;;
37355;SDS011;48747;50.250;18.848;2022-08-20T11:16:34;16.67;;;7.45;;
37355;SDS011;48747;50.250;18.848;2022-08-20T11:18:37;14.58;;;6.33;;
37355;SDS011;48747;50.250;18.848;2022-08-20T11:20:42;16.65;;;6.78;;
37355;SDS011;48747;50.250;18.848;2022-08-20T11:22:54;13.90;;;6.60;;
37355;SDS011;48747;50.250;18.848;2022-08-20T11:27:01;23.83;;;7.40;;
37355;SDS011;48747;50.250;18.848;2022-08-20T11:29:21;15.53;;;6.55;;
37355;SDS011;48747;50.250;18.848;2022-08-20T11:31:22;16.23;;;6.92;;
37355;SDS011;48747;50.250;18.848;2022-08-20T11:33:23;17.30;;;6.80;;
37355;SDS011;48747;50.250;18.848;2022-08-20T11:35:29;18.92;;;7.10;;
37355;SDS011;48747;50.250;18.848;2022-08-20T11:37:35;18.45;;;7.53;;
37355;SDS011;48747;50.250;18.848;2022-08-20T11:39:40;21.90;;;8.98;;
37355;SDS011;48747;50.250;18.848;2022-08-20T11:41:46;13.35;;;6.60;;
37355;SDS011;48747;50.250;18.848;2022-08-20T11:43:50;13.93;;;6.78;;
37355;SDS011;48747;50.250;18.848;2022-08-20T11:45:55;17.12;;;7.60;;
37355;SDS011;48747;50.250;18.848;2022-08-20T11:48:00;14.35;;;7.37;;
37355;SDS011;48747;50.250;18.848;2022-08-20T11:50:25;17.95;;;7.95;;
37355;SDS011;48747;50.250;18.848;2022-08-20T11:52:14;20.12;;;8.53;;
37355;SDS011;48747;50.250;18.848;2022-08-20T11:54:19;16.90;;;8.08;;
37355;SDS011;48747;50.250;18.848;2022-08-20T11:56:46;17.73;;;8.63;;
37355;SDS011;48747;50.250;18.848;2022-08-20T11:58:56;17.32;;;8.70;;
37355;SDS011;48747;50.250;18.848;2022-08-20T12:03:30;19.17;;;9.78;;
37355;SDS011;48747;50.250;18.848;2022-08-20T12:05:53;14.80;;;9.03;;
37355;SDS011;48747;50.250;18.848;2022-08-20T12:07:59;18.37;;;9.95;;
37355;SDS011;48747;50.250;18.848;2022-08-20T12:10:15;17.80;;;9.35;;
37355;SDS011;48747;50.250;18.848;2022-08-20T12:12:25;22.87;;;10.08;;
37355;SDS011;48747;50.250;18.848;2022-08-20T12:14:32;19.40;;;10.23;;
37355;SDS011;48747;50.250;18.848;2022-08-20T12:16:38;21.95;;;11.00;;
37355;SDS011;48747;50.250;18.848;2022-08-20T12:19:01;39.15;;;13.15;;
37355;SDS011;48747;50.250;18.848;2022-08-20T12:20:56;24.92;;;11.03;;
37355;SDS011;48747;50.250;18.848;2022-08-20T12:23:03;16.70;;;8.20;;
37355;SDS011;48747;50.250;18.848;2022-08-20T12:25:24;14.45;;;7.42;;
37355;SDS011;48747;50.250;18.848;2022-08-20T12:29:28;14.90;;;6.97;;
37355;SDS011;48747;50.250;18.848;2022-08-20T12:31:38;15.80;;;8.00;;
37355;SDS011;48747;50.250;18.848;2022-08-20T12:33:45;24.32;;;9.20;;
37355;SDS011;48747;50.250;18.848;2022-08-20T12:35:50;37.33;;;9.78;;
37355;SDS011;48747;50.250;18.848;2022-08-20T12:37:53;13.95;;;8.68;;
37355;SDS011;48747;50.250;18.848;2022-08-20T12:39:57;19.85;;;8.53;;
37355;SDS011;48747;50.250;18.848;2022-08-20T12:42:06;14.15;;;7.17;;
37355;SDS011;48747;50.250;18.848;2022-08-20T12:44:20;17.35;;;7.37;;
37355;SDS011;48747;50.250;18.848;2022-08-20T12:46:24;16.48;;;7.97;;